Time;durP1;ratioP1;P1;durP2;ratioP2;P2;SDS_P1;SDS_P2;PMS_P1;PMS_P2;Temp;Humidity;BMP_temperature;BMP_pressure;BME280_temperature;BME280_humidity;BME280_pressure;Samples;Min_cycle;Max_cycle;Signal;HPM_P1;HPM_P2
2023/07/04 00:01:15;;;;;;;;;6.00;6.00;;;;;20.70;44.80;100607.75;5039043;28;46226;-72
2023/07/04 00:03:44;;;;;;;;;5.00;5.00;;;;;20.67;44.92;100611.50;5038600;28;45391;-75
2023/07/04 00:06:12;;;;;;;;;3.75;3.75;;;;;20.64;45.01;100613.59;5019502;28;44786;-75
2023/07/04 00:08:38;;;;;;;;;6.00;6.00;;;;;20.53;44.97;100603.78;5037122;28;45497;-71
2023/07/04 00:11:06;;;;;;;;;4.25;4.25;;;;;20.55;45.35;100610.72;5019273;28;47927;-75
2023/07/04 00:13:32;;;;;;;;;5.25;5.25;;;;;20.54;45.04;100618.84;5037205;28;45314;-76
2023/07/04 00:15:59;;;;;;;;;6.50;6.50;;;;;20.50;45.44;100609.38;5037042;28;45348;-67
2023/07/04 00:18:27;;;;;;;;;6.00;6.00;;;;;20.52;45.25;100610.97;5037060;28;45419;-69
2023/07/04 00:20:58;;;;;;;;;6.50;5.00;;;;;20.49;45.08;100613.88;5038266;28;46401;-69
2023/07/04 00:23:26;;;;;;;;;5.25;5.25;;;;;20.45;45.62;100609.78;5040211;28;45565;-72
2023/07/04 00:25:53;;;;;;;;;5.25;5.25;;;;;20.43;45.58;100612.56;5046071;28;45359;-72
2023/07/04 00:28:21;;;;;;;;;6.25;6.25;;;;;20.41;45.47;100614.50;5041935;28;45371;-72
2023/07/04 00:30:46;;;;;;;;;7.00;7.00;;;;;20.35;45.85;100616.84;5039381;28;46753;-69
2023/07/04 00:33:13;;;;;;;;;6.25;6.25;;;;;20.37;45.48;100623.75;5037952;28;45289;-67
2023/07/04 00:35:39;;;;;;;;;7.50;7.50;;;;;20.34;45.43;100618.66;5037681;28;45319;-70
2023/07/04 00:38:04;;;;;;;;;8.25;8.25;;;;;20.34;45.42;100617.81;5039877;28;45393;-68
2023/07/04 00:40:29;;;;;;;;;9.75;9.75;;;;;20.32;45.57;100617.09;5040144;28;54265;-74
2023/07/04 00:43:02;;;;;;;;;8.00;8.00;;;;;20.30;45.88;100611.84;5040461;28;45448;-68
2023/07/04 00:45:31;;;;;;;;;4.75;4.75;;;;;20.29;46.15;100616.38;5040175;28;45336;-72
2023/07/04 00:48:00;;;;;;;;;6.75;6.75;;;;;20.16;46.58;100588.97;5041501;28;45353;-69
2023/07/04 00:50:47;;;;;;;;;6.00;6.00;;;;;20.23;46.35;100606.19;5039248;28;46453;-71
2023/07/04 00:53:15;;;;;;;;;6.50;6.00;;;;;20.13;46.35;100597.19;5039031;28;45245;-69
2023/07/04 00:55:49;;;;;;;;;6.25;6.00;;;;;20.15;46.68;100608.63;5039216;28;45473;-69
2023/07/04 00:58:15;;;;;;;;;5.00;5.00;;;;;20.01;46.79;100591.03;5039260;28;45456;-69
2023/07/04 01:00:41;;;;;;;;;7.00;7.00;;;;;20.06;46.80;100615.53;5039831;28;47194;-69
2023/07/04 01:03:24;;;;;;;;;4.00;4.00;;;;;19.96;47.17;100607.41;5040732;28;45431;-75
2023/07/04 01:06:09;;;;;;;;;6.25;6.25;;;;;20.02;47.46;100624.75;5040844;28;45432;-76
2023/07/04 01:08:43;;;;;;;;;4.00;4.00;;;;;19.98;47.34;100624.16;5041046;28;45356;-74
2023/07/04 01:11:16;;;;;;;;;5.00;5.00;;;;;19.97;47.20;100626.94;5041924;28;45412;-68
2023/07/04 01:13:46;;;;;;;;;6.25;6.25;;;;;19.92;47.33;100621.97;5021458;28;45344;-64
2023/07/04 01:16:15;;;;;;;;;5.50;5.50;;;;;20.01;47.28;100623.06;5039732;28;45265;-66
2023/07/04 01:18:44;;;;;;;;;6.50;5.25;;;;;20.00;47.11;100616.03;5039814;28;45508;-71
2023/07/04 01:21:11;;;;;;;;;6.25;6.25;;;;;19.98;47.03;100618.81;5039547;28;46071;-69
2023/07/04 01:24:01;;;;;;;;;5.25;5.25;;;;;19.92;47.40;100611.28;5039866;28;45398;-72
2023/07/04 01:26:34;;;;;;;;;4.75;4.75;;;;;19.95;47.75;100607.53;5039473;28;45276;-66
2023/07/04 01:29:02;;;;;;;;;4.25;4.25;;;;;20.04;47.39;100622.81;5040155;28;45925;-67
2023/07/04 01:31:30;;;;;;;;;4.75;4.75;;;;;20.04;47.64;100628.16;5039918;28;45312;-70
2023/07/04 01:33:57;;;;;;;;;4.50;4.50;;;;;19.99;47.38;100625.84;5039296;28;45438;-69
2023/07/04 01:36:26;;;;;;;;;4.75;4.75;;;;;20.07;47.58;100632.38;5039478;28;45411;-66
2023/07/04 01:38:52;;;;;;;;;5.50;5.50;;;;;20.07;47.61;100627.91;5039273;28;45325;-69
2023/07/04 01:41:18;;;;;;;;;5.00;5.00;;;;;20.08;47.50;100637.63;5038661;28;46370;-65
2023/07/04 01:43:50;;;;;;;;;7.00;7.00;;;;;20.08;47.47;100640.28;5020693;28;45201;-66
2023/07/04 01:46:16;;;;;;;;;5.75;5.75;;;;;19.98;47.91;100621.47;5039865;28;45219;-76
2023/07/04 01:48:41;;;;;;;;;6.75;6.75;;;;;20.03;47.68;100633.59;5021592;28;45517;-79
2023/07/04 01:51:07;;;;;;;;;5.00;5.00;;;;;20.02;48.05;100631.91;5041219;28;45250;-79
2023/07/04 01:53:32;;;;;;;;;6.25;4.75;;;;;20.03;48.08;100630.94;5041639;28;45374;-71
2023/07/04 01:55:58;;;;;;;;;6.25;6.25;;;;;20.04;47.62;100633.50;5044080;28;45392;-70
2023/07/04 01:58:23;;;;;;;;;6.25;6.25;;;;;19.97;48.09;100629.63;5042709;28;45568;-72
2023/07/04 02:00:48;;;;;;;;;4.75;4.75;;;;;19.91;48.18;100633.59;5039770;28;46345;-69
2023/07/04 02:03:14;;;;;;;;;5.25;5.25;;;;;19.87;48.57;100623.28;5039194;28;45351;-69
2023/07/04 02:05:39;;;;;;;;;4.25;4.25;;;;;19.85;48.17;100629.59;5038707;28;45316;-71
2023/07/04 02:08:05;;;;;;;;;4.75;4.75;;;;;19.76;48.51;100637.47;5040176;28;45435;-68
2023/07/04 02:10:32;;;;;;;;;2.50;2.50;;;;;19.67;49.16;100633.72;5039972;28;46178;-67
2023/07/04 02:12:58;;;;;;;;;4.00;4.00;;;;;19.58;49.04;100637.06;5020896;28;46085;-73
2023/07/04 02:15:24;;;;;;;;;5.00;5.00;;;;;19.44;49.30;100624.81;5040211;28;45344;-67
2023/07/04 02:17:50;;;;;;;;;4.00;4.00;;;;;19.47;49.14;100627.25;5041836;28;45430;-74
2023/07/04 02:20:20;;;;;;;;;5.00;5.00;;;;;19.41;49.45;100625.88;5041440;28;45363;-69
2023/07/04 02:22:45;;;;;;;;;4.50;4.50;;;;;19.37;49.71;100624.41;5040680;28;45691;-72
2023/07/04 02:25:11;;;;;;;;;6.50;6.50;;;;;19.33;49.56;100625.63;5040234;28;45572;-75
2023/07/04 02:27:36;;;;;;;;;4.00;4.00;;;;;19.27;50.00;100621.63;5039461;28;45536;-72
2023/07/04 02:30:06;;;;;;;;;5.25;5.25;;;;;19.09;50.20;100592.75;5038474;28;46138;-68
2023/07/04 02:32:31;;;;;;;;;3.75;3.75;;;;;19.20;50.14;100612.41;5039152;28;45293;-68
2023/07/04 02:34:56;;;;;;;;;5.50;4.75;;;;;19.14;49.85;100612.88;5038733;28;45441;-71
2023/07/04 02:37:21;;;;;;;;;4.00;4.00;;;;;19.11;50.33;100613.94;5038496;28;45341;-71
2023/07/04 02:39:48;;;;;;;;;4.00;4.00;;;;;19.04;50.58;100610.88;5039920;28;46136;-75
2023/07/04 02:42:13;;;;;;;;;7.00;7.00;;;;;19.07;50.81;100613.28;5045907;28;45189;-77
2023/07/04 02:44:39;;;;;;;;;3.75;3.75;;;;;18.98;50.85;100606.00;5042478;28;45363;-73
2023/07/04 02:47:04;;;;;;;;;5.00;5.00;;;;;18.97;51.01;100607.84;5039936;28;45384;-76
2023/07/04 02:49:30;;;;;;;;;4.50;4.50;;;;;18.92;51.04;100609.09;5023483;28;46309;-77
2023/07/04 02:51:55;;;;;;;;;3.50;3.00;;;;;18.87;51.20;100611.25;5021202;28;47183;-73
2023/07/04 02:54:20;;;;;;;;;5.00;5.00;;;;;18.79;51.47;100609.19;5038620;28;45402;-71
2023/07/04 02:56:46;;;;;;;;;5.00;4.25;;;;;18.74;51.66;100598.84;5039236;28;45412;-72
2023/07/04 02:59:11;;;;;;;;;5.00;5.00;;;;;18.78;51.85;100605.66;5039358;28;45970;-72
2023/07/04 03:01:37;;;;;;;;;3.00;3.00;;;;;18.78;51.91;100599.50;5039719;28;45393;-67
2023/07/04 03:04:02;;;;;;;;;7.00;6.00;;;;;18.82;51.73;100598.28;5038689;28;45229;-72
2023/07/04 03:06:27;;;;;;;;;3.50;3.50;;;;;18.66;51.97;100585.25;5038711;28;45261;-69
2023/07/04 03:08:55;;;;;;;;;4.00;4.00;;;;;18.69;52.32;100598.34;5020010;28;47393;-69
2023/07/04 03:11:20;;;;;;;;;3.00;3.00;;;;;18.69;52.48;100603.69;5038303;28;45285;-66
2023/07/04 03:13:45;;;;;;;;;4.50;4.50;;;;;18.68;52.33;100602.84;5038816;28;45360;-73
2023/07/04 03:16:11;;;;;;;;;3.00;3.00;;;;;18.68;52.40;100600.19;5041483;28;44832;-69
2023/07/04 03:18:36;;;;;;;;;4.25;4.25;;;;;18.67;52.62;100590.50;5042138;28;45746;-66
2023/07/04 03:21:02;;;;;;;;;0.00;0.00;;;;;18.67;52.39;100598.47;5044610;28;45135;-68
2023/07/04 03:23:27;;;;;;;;;5.00;5.00;;;;;18.67;52.55;100601.16;5045000;28;45296;-72
2023/07/04 03:25:52;;;;;;;;;5.50;5.50;;;;;18.59;52.66;100584.00;5041822;28;45593;-71
2023/07/04 03:28:18;;;;;;;;;5.00;4.75;;;;;18.69;52.66;100601.00;5041502;28;62076;-72
2023/07/04 03:30:43;;;;;;;;;6.75;6.75;;;;;18.74;52.33;100590.03;5041975;28;45458;-72
2023/07/04 03:33:08;;;;;;;;;4.00;4.00;;;;;18.72;52.37;100592.78;5032236;28;45312;-76
2023/07/04 03:35:38;;;;;;;;;5.00;5.00;;;;;18.72;52.36;100587.47;5045722;28;45985;-76
2023/07/04 03:38:03;;;;;;;;;5.50;5.50;;;;;18.83;52.21;100589.34;5042439;28;45417;-74
2023/07/04 03:40:29;;;;;;;;;6.00;5.00;;;;;18.85;52.32;100595.41;5038675;28;45384;-69
2023/07/04 03:42:54;;;;;;;;;5.50;5.50;;;;;18.88;52.31;100600.50;5038725;28;45237;-68
2023/07/04 03:45:20;;;;;;;;;5.25;5.25;;;;;18.88;52.59;100580.97;5040258;28;45252;-74
2023/07/04 03:47:45;;;;;;;;;5.50;5.50;;;;;18.94;52.61;100596.50;5038968;28;45310;-70
2023/07/04 03:50:13;;;;;;;;;5.25;5.25;;;;;18.95;52.59;100587.53;5038129;28;45391;-72
2023/07/04 03:52:39;;;;;;;;;6.00;6.00;;;;;19.02;52.12;100583.47;5037022;28;45237;-65
2023/07/04 03:55:05;;;;;;;;;6.75;6.00;;;;;19.07;51.89;100583.97;5019409;28;45594;-67
2023/07/04 03:57:31;;;;;;;;;6.75;6.75;;;;;19.13;51.94;100588.00;5037272;28;45530;-73
2023/07/04 03:59:56;;;;;;;;;6.50;5.75;;;;;19.10;51.87;100570.44;5038296;28;45285;-70
2023/07/04 04:02:21;;;;;;;;;6.50;6.50;;;;;19.26;52.03;100586.09;5037676;28;45385;-69
2023/07/04 04:04:47;;;;;;;;;4.00;4.00;;;;;19.23;51.78;100574.81;5037728;28;45419;-70
2023/07/04 04:07:12;;;;;;;;;5.00;5.00;;;;;19.15;51.29;100561.25;5021049;28;47243;-72
2023/07/04 04:09:38;;;;;;;;;5.00;5.00;;;;;19.30;51.32;100578.72;5037568;28;45340;-73
2023/07/04 04:12:06;;;;;;;;;3.50;3.50;;;;;19.23;51.22;100566.84;5038832;28;45712;-70
2023/07/04 04:14:32;;;;;;;;;5.00;5.00;;;;;19.33;51.28;100583.81;5020950;28;45242;-71
2023/07/04 04:16:58;;;;;;;;;5.00;5.00;;;;;19.33;51.00;100581.16;5039390;28;46368;-75
2023/07/04 04:19:25;;;;;;;;;5.25;5.25;;;;;19.40;51.08;100586.84;5041054;28;45315;-75
2023/07/04 04:21:51;;;;;;;;;6.00;6.00;;;;;19.41;51.02;100583.19;5039818;28;45462;-74
2023/07/04 04:24:16;;;;;;;;;6.25;6.25;;;;;19.47;50.85;100584.56;5039102;28;45382;-73
2023/07/04 04:26:43;;;;;;;;;5.50;5.50;;;;;19.51;50.81;100586.00;5021099;28;49228;-76
2023/07/04 04:29:09;;;;;;;;;5.00;5.00;;;;;19.53;50.50;100589.41;5039602;28;45363;-68
2023/07/04 04:31:37;;;;;;;;;8.00;6.00;;;;;19.59;50.66;100591.59;5037920;28;45307;-77
2023/07/04 04:34:04;;;;;;;;;7.00;5.25;;;;;19.63;50.95;100592.22;5037105;28;45252;-74
2023/07/04 04:36:30;;;;;;;;;6.00;6.00;;;;;19.72;50.39;100599.50;5037171;28;45676;-73
2023/07/04 04:38:56;;;;;;;;;5.00;5.00;;;;;19.81;50.47;100595.25;5037259;28;45313;-71
2023/07/04 04:41:21;;;;;;;;;4.00;4.00;;;;;19.85;50.49;100596.69;5019293;28;45399;-72
2023/07/04 04:43:49;;;;;;;;;7.00;5.25;;;;;19.90;50.97;100591.88;5036951;28;45331;-74
2023/07/04 04:46:16;;;;;;;;;6.00;6.00;;;;;19.97;50.47;100595.75;5039614;28;46906;-71
2023/07/04 04:48:41;;;;;;;;;6.00;6.00;;;;;20.05;50.42;100591.63;5021490;28;45306;-76
2023/07/04 04:51:09;;;;;;;;;6.25;6.00;;;;;20.10;50.22;100592.94;5038899;28;45221;-71
2023/07/04 04:53:35;;;;;;;;;5.00;5.00;;;;;20.13;50.09;100595.38;5039472;28;45481;-77
2023/07/04 04:56:02;;;;;;;;;6.25;6.25;;;;;20.19;50.13;100590.50;5040215;28;45344;-76
2023/07/04 04:58:27;;;;;;;;;7.25;7.25;;;;;20.26;49.61;100589.03;5040006;28;45363;-72
2023/07/04 05:00:52;;;;;;;;;7.75;7.75;;;;;20.32;50.23;100590.38;5035502;28;48703;-74
2023/07/04 05:03:18;;;;;;;;;10.50;9.75;;;;;20.38;49.68;100593.38;5018068;28;45342;-73
2023/07/04 05:05:43;;;;;;;;;9.50;8.75;;;;;20.41;49.43;100592.28;5035622;28;45308;-72
2023/07/04 05:08:08;;;;;;;;;6.25;6.25;;;;;20.43;49.96;100588.50;5036212;28;45396;-67
2023/07/04 05:10:33;;;;;;;;;8.25;8.25;;;;;20.51;49.81;100597.72;5035748;28;48287;-68
2023/07/04 05:12:59;;;;;;;;;7.00;7.00;;;;;20.58;49.51;100589.09;5037173;28;45270;-69
2023/07/04 05:15:24;;;;;;;;;8.00;8.00;;;;;20.62;49.29;100580.81;5038737;28;45466;-71
2023/07/04 05:17:50;;;;;;;;;6.00;6.00;;;;;20.80;48.91;100594.50;5040077;28;48843;-69
2023/07/04 05:20:22;;;;;;;;;6.00;6.00;;;;;20.89;48.84;100600.91;5039863;28;45286;-71
2023/07/04 05:22:48;;;;;;;;;10.75;10.75;;;;;20.99;48.97;100588.44;5038379;28;45289;-68
2023/07/04 05:25:14;;;;;;;;;6.00;6.00;;;;;21.12;48.20;100590.94;5022780;28;46385;-71
2023/07/04 05:27:39;;;;;;;;;7.00;7.00;;;;;21.30;48.03;100599.22;5040074;28;45195;-72
2023/07/04 05:30:05;;;;;;;;;8.00;7.00;;;;;21.44;47.89;100595.34;5040652;28;45267;-72
2023/07/04 05:32:30;;;;;;;;;6.00;6.00;;;;;21.60;47.41;100595.72;5040960;28;45199;-69
2023/07/04 05:34:56;;;;;;;;;10.25;9.75;;;;;21.77;47.38;100582.75;5040965;28;46466;-67
2023/07/04 05:37:21;;;;;;;;;14.50;14.50;;;;;22.01;47.00;100582.38;5041687;28;45226;-73
2023/07/04 05:39:47;;;;;;;;;11.00;11.00;;;;;22.12;46.27;100583.25;5042019;28;45292;-69
2023/07/04 05:42:12;;;;;;;;;9.50;9.50;;;;;22.21;46.21;100595.81;5042165;28;45328;-74
2023/07/04 05:44:38;;;;;;;;;8.00;8.00;;;;;22.30;46.23;100595.03;5024000;28;45344;-68
2023/07/04 05:47:03;;;;;;;;;10.25;10.00;;;;;22.44;46.04;100587.56;5041261;28;45233;-68
2023/07/04 05:49:29;;;;;;;;;8.00;8.00;;;;;22.59;45.88;100591.56;5040964;28;45404;-72
2023/07/04 05:51:54;;;;;;;;;5.00;5.00;;;;;22.66;45.96;100589.16;5039512;28;45551;-74
2023/07/04 05:54:20;;;;;;;;;5.75;5.75;;;;;22.72;45.65;100593.13;5038975;28;46727;-71
2023/07/04 05:56:51;;;;;;;;;8.50;8.50;;;;;22.71;45.77;100583.38;5038927;28;45345;-67
2023/07/04 05:59:16;;;;;;;;;8.50;8.50;;;;;22.87;45.19;100593.56;5022382;28;45246;-71
2023/07/04 06:01:44;;;;;;;;;7.25;7.25;;;;;22.88;44.72;100588.03;5040045;28;45247;-74
2023/07/04 06:04:11;;;;;;;;;6.00;6.00;;;;;22.91;44.63;100594.97;5039939;28;46258;-73
2023/07/04 06:06:45;;;;;;;;;4.75;4.75;;;;;22.98;44.91;100592.53;5042003;28;45335;-73
2023/07/04 06:09:15;;;;;;;;;6.50;6.50;;;;;23.05;44.80;100604.38;5040901;28;45406;-66
2023/07/04 06:11:46;;;;;;;;;8.50;8.50;;;;;23.05;44.40;100597.22;5041312;28;45384;-73
2023/07/04 06:14:22;;;;;;;;;9.50;9.50;;;;;23.12;44.39;100593.94;5044742;28;45388;-74
2023/07/04 06:16:48;;;;;;;;;8.25;8.25;;;;;23.12;44.38;100592.09;5043463;28;45307;-72
2023/07/04 06:19:13;;;;;;;;;7.50;7.50;;;;;23.05;44.68;100582.94;5040796;28;45407;-70
2023/07/04 06:21:39;;;;;;;;;8.25;8.25;;;;;22.88;44.87;100571.94;5039652;28;45405;-69
2023/07/04 06:24:05;;;;;;;;;7.50;7.50;;;;;22.95;44.39;100587.47;5039461;28;45519;-74
2023/07/04 06:26:32;;;;;;;;;8.75;8.75;;;;;22.89;44.60;100586.22;5040000;28;45347;-70
2023/07/04 06:28:58;;;;;;;;;9.00;9.00;;;;;22.89;44.66;100591.56;5040441;28;45414;-69
2023/07/04 06:31:25;;;;;;;;;5.50;5.50;;;;;22.76;44.52;100575.75;5039225;28;45313;-70
2023/07/04 06:33:51;;;;;;;;;8.75;8.25;;;;;22.83;44.54;100581.41;5040225;28;46207;-69
2023/07/04 06:36:17;;;;;;;;;6.00;5.75;;;;;22.87;44.67;100583.66;5041752;28;45387;-72
2023/07/04 06:38:43;;;;;;;;;6.00;6.00;;;;;22.80;44.59;100581.66;5041161;28;45436;-73
2023/07/04 06:41:10;;;;;;;;;7.50;7.50;;;;;;;;5039714;28;45514;-69
2023/07/04 06:43:35;;;;;;;;;6.75;6.75;;;;;22.70;44.52;100581.69;5040314;28;45352;-68
2023/07/04 06:46:01;;;;;;;;;6.50;6.50;;;;;22.76;44.21;100590.00;5039633;28;45309;-69
2023/07/04 06:48:28;;;;;;;;;6.00;6.00;;;;;22.78;44.53;100579.16;5039197;28;45308;-75
2023/07/04 06:51:02;;;;;;;;;6.50;6.50;;;;;22.85;44.55;100585.63;5038810;28;45548;-74
2023/07/04 06:53:29;;;;;;;;;9.00;9.00;;;;;22.95;43.90;100587.47;5037320;28;45409;-71
2023/07/04 06:56:22;;;;;;;;;16.50;15.50;;;;;23.05;44.06;100597.22;5037404;28;45324;-70
2023/07/04 06:58:52;;;;;;;;;10.75;10.75;;;;;23.36;43.51;100606.06;5041041;28;45197;-74
2023/07/04 07:01:19;;;;;;;;;12.00;12.00;;;;;23.62;43.22;100607.13;5040578;28;45409;-75
2023/07/04 07:03:45;;;;;;;;;7.75;7.75;;;;;23.85;42.91;100606.75;5039914;28;46213;-78
2023/07/04 07:06:11;;;;;;;;;8.00;8.00;;;;;24.07;42.62;100610.09;5024113;28;45446;-73
2023/07/04 07:08:37;;;;;;;;;10.00;9.50;;;;;24.31;42.67;100617.56;5042161;28;45418;-78
2023/07/04 07:11:05;;;;;;;;;9.00;9.00;;;;;24.59;42.19;100617.56;5043617;28;45201;-73
2023/07/04 07:13:31;;;;;;;;;8.00;8.00;;;;;24.71;42.20;100610.09;5027925;28;45647;-75
2023/07/04 07:16:17;;;;;;;;;6.00;6.00;;;;;24.64;40.47;100587.50;5023136;28;45332;-77
2023/07/04 07:18:44;;;;;;;;;7.50;6.50;;;;;24.80;40.42;100616.44;5025559;28;45300;-72
2023/07/04 07:21:12;;;;;;;;;6.50;6.25;;;;;24.78;40.81;100602.28;5041674;28;45612;-74
2023/07/04 07:23:39;;;;;;;;;11.00;11.00;;;;;24.94;40.58;100615.88;5041750;28;46353;-78
2023/07/04 07:26:07;;;;;;;;;12.25;12.25;;;;;25.06;40.13;100608.44;5041819;28;45400;-74
2023/07/04 07:28:38;;;;;;;;;10.75;10.75;;;;;25.06;40.47;100618.31;5041686;28;45369;-76
2023/07/04 07:31:11;;;;;;;;;10.50;10.50;;;;;25.16;40.26;100621.78;5043220;28;45225;-82
2023/07/04 07:33:39;;;;;;;;;7.00;7.00;;;;;25.44;39.20;100621.63;5040965;28;45307;-77
2023/07/04 07:36:13;;;;;;;;;7.00;6.00;;;;;25.72;38.42;100620.63;5038921;28;45360;-74
2023/07/04 07:38:39;;;;;;;;;6.75;6.75;;;;;25.88;38.48;100625.28;5038864;28;45527;-71
2023/07/04 07:41:05;;;;;;;;;6.75;6.75;;;;;25.98;38.36;100617.91;5038570;28;45457;-71
2023/07/04 07:43:31;;;;;;;;;10.25;10.00;;;;;26.00;38.20;100612.38;5039268;28;45439;-81
2023/07/04 07:45:56;;;;;;;;;6.50;6.50;;;;;26.05;38.08;100600.09;5045497;28;45301;-72
2023/07/04 07:48:22;;;;;;;;;5.25;5.25;;;;;26.04;37.40;100584.91;5022251;28;60221;-78
2023/07/04 07:50:47;;;;;;;;;7.00;7.00;;;;;26.11;36.95;100604.81;5039347;28;45529;-74
2023/07/04 07:53:14;;;;;;;;;9.00;9.00;;;;;26.21;37.50;100598.47;5038336;28;46536;-71
2023/07/04 07:55:39;;;;;;;;;10.25;10.25;;;;;26.41;37.63;100601.72;5039441;28;45380;-72
2023/07/04 07:58:05;;;;;;;;;6.50;6.50;;;;;26.60;37.05;100597.03;5044521;28;45818;-75
2023/07/04 08:00:30;;;;;;;;;5.75;5.75;;;;;26.66;36.30;100586.44;5042054;28;45872;-78
2023/07/04 08:02:56;;;;;;;;;7.00;7.00;;;;;26.86;36.10;100596.94;5039215;28;45824;-74
2023/07/04 08:05:22;;;;;;;;;7.75;7.75;;;;;27.00;36.46;100587.28;5038778;28;45386;-77
2023/07/04 08:07:47;;;;;;;;;6.75;6.75;;;;;27.08;36.10;100591.84;5020443;28;45243;-73
2023/07/04 08:10:12;;;;;;;;;6.00;6.00;;;;;27.14;36.12;100591.16;5038212;28;45379;-69
2023/07/04 08:12:38;;;;;;;;;4.50;4.50;;;;;27.16;35.55;100586.44;5041193;28;45312;-70
2023/07/04 08:15:04;;;;;;;;;6.75;6.75;;;;;27.18;35.94;100584.41;5042238;28;45185;-72
2023/07/04 08:17:29;;;;;;;;;7.50;7.00;;;;;27.22;35.38;100582.22;5041314;28;45395;-67
2023/07/04 08:19:55;;;;;;;;;4.00;4.00;;;;;27.15;35.56;100568.56;5038362;28;45455;-67
2023/07/04 08:22:20;;;;;;;;;8.00;8.00;;;;;27.09;35.38;100577.34;5018774;28;45378;-71
2023/07/04 08:24:45;;;;;;;;;10.00;10.00;;;;;26.95;35.25;100578.88;5037227;28;45407;-67
2023/07/04 08:27:11;;;;;;;;;12.50;12.50;;;;;26.88;35.75;100581.41;5018527;28;45542;-67
2023/07/04 08:29:36;;;;;;;;;8.50;8.50;;;;;26.90;36.10;100579.38;5018643;28;45575;-67
2023/07/04 08:32:02;;;;;;;;;8.75;8.00;;;;;26.97;35.87;100574.13;5036096;28;46275;-68
2023/07/04 08:34:27;;;;;;;;;11.75;11.75;;;;;27.12;35.21;100572.47;5018992;28;45251;-77
2023/07/04 08:36:53;;;;;;;;;10.50;10.50;;;;;27.13;35.07;100554.41;5038556;28;45749;-69
2023/07/04 08:39:18;;;;;;;;;6.00;6.00;;;;;27.42;34.77;100582.69;5036267;28;45458;-67
2023/07/04 08:41:58;;;;;;;;;6.75;6.75;;;;;27.47;34.85;100584.88;5037288;28;46134;-71
2023/07/04 08:44:30;;;;;;;;;7.00;7.00;;;;;27.46;34.85;100577.78;5037354;28;45363;-66
2023/07/04 08:46:58;;;;;;;;;6.75;6.75;;;;;27.48;34.51;100581.16;5035786;28;45218;-71
2023/07/04 08:49:34;;;;;;;;;8.25;8.25;;;;;27.44;34.32;100577.94;5036167;28;45400;-67
2023/07/04 08:52:04;;;;;;;;;7.75;7.75;;;;;27.51;34.36;100565.47;5034961;28;47346;-68
2023/07/04 08:54:30;;;;;;;;;5.00;5.00;;;;;27.34;34.50;100544.88;5034970;28;45237;-67
2023/07/04 08:57:00;;;;;;;;;7.25;7.00;;;;;27.45;33.90;100557.19;5016906;28;45364;-66
2023/07/04 08:59:39;;;;;;;;;8.00;8.00;;;;;27.40;34.27;100563.97;5039867;28;45505;-69
2023/07/04 09:02:50;;;;;;;;;6.25;6.25;;;;;27.30;34.29;100568.72;5040030;28;45234;-70
2023/07/04 09:05:29;;;;;;;;;5.00;5.00;;;;;27.40;34.01;100576.59;4992491;28;45373;-68
2023/07/04 09:08:12;;;;;;;;;8.00;8.00;;;;;27.50;34.53;100571.06;5040288;28;45427;-68
2023/07/04 09:10:43;;;;;;;;;5.75;5.75;;;;;27.53;34.36;100565.31;5023413;28;45518;-70
2023/07/04 09:13:12;;;;;;;;;7.75;7.75;;;;;27.56;34.17;100548.75;5041038;28;45284;-67
2023/07/04 09:15:42;;;;;;;;;14.75;14.75;;;;;27.64;33.61;100553.28;5044272;28;45259;-71
2023/07/04 09:18:08;;;;;;;;;11.50;11.50;;;;;27.81;34.29;100554.91;5044913;28;45302;-75
2023/07/04 09:20:40;;;;;;;;;14.25;14.25;;;;;28.02;34.16;100547.19;5041858;28;45351;-71
2023/07/04 09:23:15;;;;;;;;;5.25;5.25;;;;;28.16;33.66;100540.22;5021129;28;46855;-68
2023/07/04 09:25:41;;;;;;;;;7.50;7.50;;;;;28.50;33.83;100558.75;5041073;28;45199;-69
2023/07/04 09:28:07;;;;;;;;;6.50;6.50;;;;;28.72;33.76;100565.19;5042596;28;45257;-67
2023/07/04 09:30:32;;;;;;;;;7.25;7.00;;;;;28.90;33.48;100555.91;5040016;28;45595;-71
2023/07/04 09:32:58;;;;;;;;;6.50;6.50;;;;;29.01;32.42;100569.00;5040216;28;45414;-77
2023/07/04 09:35:23;;;;;;;;;7.75;7.75;;;;;28.94;33.50;100554.53;5040872;28;45235;-81
2023/07/04 09:37:57;;;;;;;;;7.00;7.00;;;;;29.04;33.06;100551.53;5040901;28;45289;-72
2023/07/04 09:40:50;;;;;;;;;14.75;11.75;;;;;29.09;32.79;100541.00;5024036;28;45280;-75
2023/07/04 09:43:33;;;;;;;;;8.25;8.25;;;;;29.10;33.07;100542.66;5040666;28;46390;-69
2023/07/04 09:46:10;;;;;;;;;7.50;7.50;;;;;29.17;32.92;100542.78;5044681;28;45305;-77
2023/07/04 09:48:35;;;;;;;;;9.25;9.25;;;;;29.19;32.82;100550.75;5047165;28;45237;-75
2023/07/04 09:51:28;;;;;;;;;9.00;9.00;;;;;29.22;32.51;100545.78;5042769;28;45144;-75
2023/07/04 09:54:13;;;;;;;;;12.25;11.25;;;;;29.40;32.64;100548.16;5041625;28;45394;-73
2023/07/04 09:56:39;;;;;;;;;7.25;7.25;;;;;29.54;32.47;100537.50;5006774;28;45327;-70
2023/07/04 09:59:29;;;;;;;;;6.75;6.75;;;;;29.78;32.31;100539.06;5026527;28;45229;-74
2023/07/04 10:02:11;;;;;;;;;8.50;8.50;;;;;29.85;31.72;100533.72;5046984;28;45371;-69
2023/07/04 10:04:40;;;;;;;;;15.50;15.00;;;;;29.81;31.87;100533.25;5027795;28;46431;-75
2023/07/04 10:07:14;;;;;;;;;5.50;5.50;;;;;29.83;31.63;100528.50;5029291;28;45315;-73
2023/07/04 10:09:49;;;;;;;;;9.00;9.00;;;;;29.53;32.00;100478.91;5030208;28;44754;-67
2023/07/04 10:12:17;;;;;;;;;9.75;9.75;;;;;29.74;31.84;100516.09;5047089;28;44906;-69
2023/07/04 10:14:54;;;;;;;;;9.00;9.00;;;;;29.66;31.66;100525.16;5025580;28;46231;-67
2023/07/04 10:17:21;;;;;;;;;6.75;6.75;;;;;29.74;31.72;100510.66;5027576;28;45433;-72
2023/07/04 10:19:51;;;;;;;;;6.50;6.50;;;;;29.92;31.71;100506.69;5024876;28;45476;-76
2023/07/04 10:22:34;;;;;;;;;6.75;6.75;;;;;30.26;31.33;100505.19;5041034;28;45270;-75
2023/07/04 10:25:01;;;;;;;;;9.50;9.50;;;;;30.56;31.18;100516.75;5023124;28;45451;-68
2023/07/04 10:27:34;;;;;;;;;9.75;9.75;;;;;30.67;30.92;100507.25;5041094;28;45407;-72
2023/07/04 10:30:05;;;;;;;;;10.50;10.50;;;;;30.78;31.01;100516.72;5040807;28;45482;-76
2023/07/04 10:32:39;;;;;;;;;12.00;12.00;;;;;30.95;30.81;100513.72;5024213;28;45309;-71
2023/07/04 10:35:08;;;;;;;;;9.75;9.75;;;;;31.00;30.94;100512.09;5025504;28;46109;-74
2023/07/04 10:37:37;;;;;;;;;8.25;8.25;;;;;30.96;30.48;100504.53;5042760;28;45243;-83
2023/07/04 10:40:08;;;;;;;;;6.25;6.25;;;;;30.89;30.92;100505.31;5045753;28;45389;-75
2023/07/04 10:42:58;;;;;;;;;6.25;6.25;;;;;31.09;30.41;100501.91;5042190;28;45241;-77
2023/07/04 10:45:26;;;;;;;;;7.25;7.25;;;;;31.47;30.79;100503.38;5039913;28;46313;-68
2023/07/04 10:48:01;;;;;;;;;8.50;8.50;;;;;31.85;30.17;100494.78;5040043;28;45270;-66
2023/07/04 10:50:34;;;;;;;;;8.25;8.25;;;;;31.99;30.10;100489.38;5020829;28;45343;-67
2023/07/04 10:52:59;;;;;;;;;8.75;8.75;;;;;32.03;29.46;100479.75;5041442;28;45429;-70
2023/07/04 10:55:36;;;;;;;;;7.75;7.75;;;;;31.95;29.20;100490.84;5028144;28;48400;-72
2023/07/04 10:58:10;;;;;;;;;9.00;9.00;;;;;31.87;29.46;100487.25;5026630;28;45411;-67
2023/07/04 11:01:03;;;;;;;;;7.25;7.25;;;;;32.00;29.59;100474.75;5043732;28;45372;-70
2023/07/04 11:03:45;;;;;;;;;10.00;10.00;;;;;32.19;29.11;100487.53;5044445;28;45218;-67
2023/07/04 11:06:16;;;;;;;;;8.75;8.75;;;;;32.36;28.88;100478.97;5046284;28;46343;-66
2023/07/04 11:08:43;;;;;;;;;8.00;8.00;;;;;32.32;29.02;100480.44;5031156;28;45166;-68
2023/07/04 11:11:12;;;;;;;;;12.25;12.25;;;;;32.33;29.07;100471.25;5047417;28;44868;-69
2023/07/04 11:13:54;;;;;;;;;8.75;8.75;;;;;32.50;29.30;100471.66;5048490;28;45354;-76
2023/07/04 11:16:28;;;;;;;;;8.25;8.25;;;;;32.75;29.27;100469.09;5031240;28;45396;-69
2023/07/04 11:19:13;;;;;;;;;8.00;8.00;;;;;32.81;28.99;100452.97;5051739;28;45343;-68
2023/07/04 11:22:05;;;;;;;;;8.25;8.25;;;;;32.69;28.71;100456.34;5046711;28;45476;-67
2023/07/04 11:24:37;;;;;;;;;8.25;8.25;;;;;32.43;28.50;100463.50;5046108;28;44729;-67
2023/07/04 11:27:18;;;;;;;;;9.00;9.00;;;;;32.41;28.45;100443.81;5043177;28;45725;-69
2023/07/04 11:29:45;;;;;;;;;7.75;7.75;;;;;32.57;28.91;100438.97;5043212;28;45177;-67
2023/07/04 11:32:31;;;;;;;;;9.50;9.50;;;;;32.65;28.72;100436.03;5025071;28;45367;-74